sensor_id;sensor_type;location;lat;lon;timestamp;pressure;altitude;pressure_sealevel;temperature;humidity
62011;BME280;47967;51.756;10.174;2022-12-18T05:03:35;101242.72;;;-13.29;74.30
62011;BME280;47967;51.756;10.174;2022-12-18T05:07:39;101245.28;;;-13.22;74.32
62011;BME280;47967;51.756;10.174;2022-12-18T05:11:41;101250.41;;;-13.14;74.27
62011;BME280;47967;51.756;10.174;2022-12-18T05:15:51;101256.50;;;-13.18;74.10
62011;BME280;47967;51.756;10.174;2022-12-18T05:19:55;101258.28;;;-13.22;73.75
62011;BME280;47967;51.756;10.174;2022-12-18T05:23:58;101250.47;;;-13.22;73.87
62011;BME280;47967;51.756;10.174;2022-12-18T05:28:01;101247.00;;;-13.19;73.66
62011;BME280;47967;51.756;10.174;2022-12-18T05:32:04;101241.03;;;-13.32;73.51
62011;BME280;47967;51.756;10.174;2022-12-18T05:36:09;101235.00;;;-13.37;73.34
62011;BME280;47967;51.756;10.174;2022-12-18T05:40:12;101236.78;;;-13.39;73.20
62011;BME280;47967;51.756;10.174;2022-12-18T05:44:15;101247.13;;;-13.36;73.68
62011;BME280;47967;51.756;10.174;2022-12-18T05:48:18;101249.69;;;-13.31;74.02
62011;BME280;47967;51.756;10.174;2022-12-18T05:52:22;101255.72;;;-13.28;74.02
62011;BME280;47967;51.756;10.174;2022-12-18T05:56:25;101264.38;;;-13.29;73.73
62011;BME280;47967;51.756;10.174;2022-12-18T06:00:27;101265.22;;;-13.27;73.64
62011;BME280;47967;51.756;10.174;2022-12-18T06:04:30;101272.19;;;-13.33;73.48
62011;BME280;47967;51.756;10.174;2022-12-18T06:08:34;101276.50;;;-13.34;73.49
62011;BME280;47967;51.756;10.174;2022-12-18T06:12:46;101291.22;;;-13.34;73.50
62011;BME280;47967;51.756;10.174;2022-12-18T06:16:50;101279.19;;;-13.39;73.75
62011;BME280;47967;51.756;10.174;2022-12-18T06:20:56;101269.56;;;-13.30;73.85
62011;BME280;47967;51.756;10.174;2022-12-18T06:25:00;101279.91;;;-13.24;74.16
62011;BME280;47967;51.756;10.174;2022-12-18T06:29:03;101284.19;;;-13.18;74.43
62011;BME280;47967;51.756;10.174;2022-12-18T06:33:05;101272.06;;;-13.15;74.71
62011;BME280;47967;51.756;10.174;2022-12-18T06:37:08;101265.16;;;-13.17;75.36
62011;BME280;47967;51.756;10.174;2022-12-18T06:41:15;101269.50;;;-13.18;75.46
62011;BME280;47967;51.756;10.174;2022-12-18T06:45:17;101265.13;;;-13.16;75.54
62011;BME280;47967;51.756;10.174;2022-12-18T06:49:20;101264.28;;;-13.16;75.16
62011;BME280;47967;51.756;10.174;2022-12-18T06:53:31;101268.75;;;-13.37;74.67
62011;BME280;47967;51.756;10.174;2022-12-18T06:57:36;101274.00;;;-13.42;74.04
62011;BME280;47967;51.756;10.174;2022-12-18T07:01:39;101263.66;;;-13.46;73.88
62011;BME280;47967;51.756;10.174;2022-12-18T07:05:42;101276.66;;;-13.51;74.17
62011;BME280;47967;51.756;10.174;2022-12-18T07:09:44;101277.47;;;-13.40;74.44
62011;BME280;47967;51.756;10.174;2022-12-18T07:13:48;101287.81;;;-13.38;74.27
62011;BME280;47967;51.756;10.174;2022-12-18T07:17:51;101284.31;;;-13.32;74.32
62011;BME280;47967;51.756;10.174;2022-12-18T07:21:54;101291.25;;;-13.36;74.29
62011;BME280;47967;51.756;10.174;2022-12-18T07:26:00;101299.88;;;-13.31;74.28
62011;BME280;47967;51.756;10.174;2022-12-18T07:30:06;101306.75;;;-13.24;74.24
62011;BME280;47967;51.756;10.174;2022-12-18T07:34:10;101316.25;;;-13.24;74.07
62011;BME280;47967;51.756;10.174;2022-12-18T07:38:13;101321.44;;;-13.24;73.51
62011;BME280;47967;51.756;10.174;2022-12-18T07:42:15;101324.03;;;-13.18;73.35
62011;BME280;47967;51.756;10.174;2022-12-18T07:46:42;101318.75;;;-13.06;72.97
62011;BME280;47967;51.756;10.174;2022-12-18T07:50:44;101336.00;;;-12.98;73.21
62011;BME280;47967;51.756;10.174;2022-12-18T07:54:47;101340.22;;;-12.87;72.97
62011;BME280;47967;51.756;10.174;2022-12-18T07:58:50;101333.22;;;-12.75;73.36
62011;BME280;47967;51.756;10.174;2022-12-18T08:02:54;101342.53;;;-12.52;73.28
62011;BME280;47967;51.756;10.174;2022-12-18T08:06:57;101340.78;;;-12.46;72.78
62011;BME280;47967;51.756;10.174;2022-12-18T08:10:59;101328.66;;;-12.48;72.64
62011;BME280;47967;51.756;10.174;2022-12-18T08:15:02;101321.66;;;-12.42;72.90
62011;BME280;47967;51.756;10.174;2022-12-18T08:19:10;101314.47;;;-12.19;73.31
62011;BME280;47967;51.756;10.174;2022-12-18T08:23:13;101312.47;;;-11.96;73.27
62011;BME280;47967;51.756;10.174;2022-12-18T08:27:15;101300.09;;;-11.78;73.22
62011;BME280;47967;51.756;10.174;2022-12-18T08:31:30;101306.91;;;-11.68;73.03
62011;BME280;47967;51.756;10.174;2022-12-18T08:35:36;101294.47;;;-11.46;73.33
62011;BME280;47967;51.756;10.174;2022-12-18T08:39:46;101283.66;;;-11.19;73.38
62011;BME280;47967;51.756;10.174;2022-12-18T08:43:49;101270.22;;;-10.93;73.45
62011;BME280;47967;51.756;10.174;2022-12-18T08:48:09;101268.16;;;-10.74;73.54
62011;BME280;47967;51.756;10.174;2022-12-18T08:52:13;101264.22;;;-10.50;73.50
62011;BME280;47967;51.756;10.174;2022-12-18T08:56:16;101259.69;;;-10.40;73.13
62011;BME280;47967;51.756;10.174;2022-12-18T09:00:19;101254.47;;;-10.40;72.89
62011;BME280;47967;51.756;10.174;2022-12-18T09:04:21;101252.63;;;-10.35;72.88
62011;BME280;47967;51.756;10.174;2022-12-18T09:08:26;101248.84;;;-10.20;73.14
62011;BME280;47967;51.756;10.174;2022-12-18T09:12:28;101246.94;;;-10.11;73.35
62011;BME280;47967;51.756;10.174;2022-12-18T09:16:31;101246.38;;;-9.84;73.56
62011;BME280;47967;51.756;10.174;2022-12-18T09:20:36;101244.06;;;-9.58;73.60
62011;BME280;47967;51.756;10.174;2022-12-18T09:24:40;101238.25;;;-9.32;73.43
62011;BME280;47967;51.756;10.174;2022-12-18T09:28:42;101240.38;;;-9.12;73.36
62011;BME280;47967;51.756;10.174;2022-12-18T09:32:45;101233.41;;;-8.77;73.46
62011;BME280;47967;51.756;10.174;2022-12-18T09:36:48;101235.25;;;-8.47;73.18
62011;BME280;47967;51.756;10.174;2022-12-18T09:40:54;101233.06;;;-8.01;72.70
62011;BME280;47967;51.756;10.174;2022-12-18T09:45:00;101223.06;;;-7.89;72.07
62011;BME280;47967;51.756;10.174;2022-12-18T09:49:07;101222.53;;;-7.70;72.40
62011;BME280;47967;51.756;10.174;2022-12-18T09:53:16;101229.56;;;-7.44;72.55
62011;BME280;47967;51.756;10.174;2022-12-18T09:57:24;101230.19;;;-7.35;72.12
62011;BME280;47967;51.756;10.174;2022-12-18T10:01:28;101240.41;;;-7.26;72.20
62011;BME280;47967;51.756;10.174;2022-12-18T10:05:47;101235.31;;;-7.04;72.59
62011;BME280;47967;51.756;10.174;2022-12-18T10:09:57;101253.97;;;-6.86;72.18
62011;BME280;47967;51.756;10.174;2022-12-18T10:14:06;101234.41;;;-6.78;72.40
62011;BME280;47967;51.756;10.174;2022-12-18T10:18:20;101246.72;;;-6.53;73.12
62011;BME280;47967;51.756;10.174;2022-12-18T10:22:34;101248.16;;;-6.19;72.84
62011;BME280;47967;51.756;10.174;2022-12-18T10:26:41;101243.59;;;-5.91;72.64
62011;BME280;47967;51.756;10.174;2022-12-18T10:30:46;101236.56;;;-5.67;72.61
62011;BME280;47967;51.756;10.174;2022-12-18T10:34:52;101230.34;;;-5.42;72.54
62011;BME280;47967;51.756;10.174;2022-12-18T10:39:14;101225.97;;;-5.21;72.40
62011;BME280;47967;51.756;10.174;2022-12-18T10:43:21;101216.56;;;-4.84;72.41
62011;BME280;47967;51.756;10.174;2022-12-18T10:47:26;101205.50;;;-4.51;72.33
62011;BME280;47967;51.756;10.174;2022-12-18T10:51:31;101210.59;;;-4.27;71.76
62011;BME280;47967;51.756;10.174;2022-12-18T10:55:37;101213.25;;;-4.08;71.80
62011;BME280;47967;51.756;10.174;2022-12-18T10:59:51;101212.06;;;-4.01;71.66
62011;BME280;47967;51.756;10.174;2022-12-18T11:04:08;101212.44;;;-3.71;71.42
62011;BME280;47967;51.756;10.174;2022-12-18T11:08:20;101194.22;;;-3.21;71.41
62011;BME280;47967;51.756;10.174;2022-12-18T11:12:24;101187.03;;;-3.00;71.21
62011;BME280;47967;51.756;10.174;2022-12-18T11:16:27;101181.19;;;-2.71;71.29
62011;BME280;47967;51.756;10.174;2022-12-18T11:20:34;101179.06;;;-2.47;71.49
62011;BME280;47967;51.756;10.174;2022-12-18T11:24:39;101167.75;;;-2.17;71.98
62011;BME280;47967;51.756;10.174;2022-12-18T11:28:44;101153.13;;;-2.07;71.45
62011;BME280;47967;51.756;10.174;2022-12-18T11:32:48;101156.72;;;-1.92;71.43
62011;BME280;47967;51.756;10.174;2022-12-18T11:36:54;101154.69;;;-1.71;71.24
62011;BME280;47967;51.756;10.174;2022-12-18T11:41:00;101143.13;;;-1.70;71.09
62011;BME280;47967;51.756;10.174;2022-12-18T11:45:20;101141.13;;;-1.50;70.92
62011;BME280;47967;51.756;10.174;2022-12-18T11:49:28;101131.59;;;-1.53;71.14
62011;BME280;47967;51.756;10.174;2022-12-18T11:53:36;101136.88;;;-1.53;71.54
62011;BME280;47967;51.756;10.174;2022-12-18T11:57:47;101126.22;;;-1.67;71.00
62011;BME280;47967;51.756;10.174;2022-12-18T12:01:55;101117.91;;;-1.75;71.02
62011;BME280;47967;51.756;10.174;2022-12-18T12:06:08;101112.47;;;-1.58;70.79
62011;BME280;47967;51.756;10.174;2022-12-18T12:10:26;101097.78;;;-1.48;70.51
62011;BME280;47967;51.756;10.174;2022-12-18T12:14:44;101097.19;;;-1.53;69.62
62011;BME280;47967;51.756;10.174;2022-12-18T12:19:00;101097.38;;;-1.56;69.65
62011;BME280;47967;51.756;10.174;2022-12-18T12:23:11;101085.34;;;-1.62;69.03
62011;BME280;47967;51.756;10.174;2022-12-18T12:27:21;101079.81;;;-1.73;69.22
62011;BME280;47967;51.756;10.174;2022-12-18T12:31:48;101072.56;;;-1.69;69.77
62011;BME280;47967;51.756;10.174;2022-12-18T12:36:00;101072.16;;;-1.78;69.56
62011;BME280;47967;51.756;10.174;2022-12-18T12:40:05;101061.81;;;-1.82;69.83
62011;BME280;47967;51.756;10.174;2022-12-18T12:44:31;101051.00;;;-1.94;69.77
62011;BME280;47967;51.756;10.174;2022-12-18T12:48:40;101051.09;;;-1.95;70.30
62011;BME280;47967;51.756;10.174;2022-12-18T12:52:47;101027.03;;;-2.06;70.33
62011;BME280;47967;51.756;10.174;2022-12-18T12:56:57;101026.38;;;-2.10;70.48
62011;BME280;47967;51.756;10.174;2022-12-18T13:01:12;101018.53;;;-2.28;71.04
62011;BME280;47967;51.756;10.174;2022-12-18T13:05:26;101010.28;;;-2.37;71.20
62011;BME280;47967;51.756;10.174;2022-12-18T13:09:33;101014.97;;;-2.43;71.44
62011;BME280;47967;51.756;10.174;2022-12-18T13:13:48;101027.84;;;-2.52;71.08
62011;BME280;47967;51.756;10.174;2022-12-18T13:18:09;101032.53;;;-2.42;70.99
62011;BME280;47967;51.756;10.174;2022-12-18T13:22:21;101028.88;;;-2.39;70.30
62011;BME280;47967;51.756;10.174;2022-12-18T13:26:33;101024.69;;;-2.43;70.88
62011;BME280;47967;51.756;10.174;2022-12-18T13:30:51;101016.75;;;-2.43;71.02
62011;BME280;47967;51.756;10.174;2022-12-18T13:35:38;101014.38;;;-2.48;70.63
62011;BME280;47967;51.756;10.174;2022-12-18T13:39:42;101018.88;;;-2.50;69.84
62011;BME280;47967;51.756;10.174;2022-12-18T13:43:46;101014.97;;;-2.43;69.75
62011;BME280;47967;51.756;10.174;2022-12-18T13:47:49;101021.53;;;-2.50;70.21
62011;BME280;47967;51.756;10.174;2022-12-18T13:51:55;101029.97;;;-2.43;69.51
62011;BME280;47967;51.756;10.174;2022-12-18T13:55:58;101014.38;;;-2.48;70.01
62011;BME280;47967;51.756;10.174;2022-12-18T14:00:14;101020.84;;;-2.53;69.52
62011;BME280;47967;51.756;10.174;2022-12-18T14:04:23;101019.72;;;-2.49;69.25
62011;BME280;47967;51.756;10.174;2022-12-18T14:08:33;101027.50;;;-2.46;69.36
62011;BME280;47967;51.756;10.174;2022-12-18T14:12:36;101027.31;;;-2.43;69.63
62011;BME280;47967;51.756;10.174;2022-12-18T14:16:56;101014.97;;;-2.43;69.33
62011;BME280;47967;51.756;10.174;2022-12-18T14:21:01;101013.06;;;-2.41;69.41
62011;BME280;47967;51.756;10.174;2022-12-18T14:25:14;101017.09;;;-2.33;68.43
62011;BME280;47967;51.756;10.174;2022-12-18T14:29:19;101015.81;;;-2.42;68.49
62011;BME280;47967;51.756;10.174;2022-12-18T14:33:25;100994.34;;;-2.52;69.33
62011;BME280;47967;51.756;10.174;2022-12-18T14:37:28;100986.50;;;-2.53;69.22
62011;BME280;47967;51.756;10.174;2022-12-18T14:41:32;100978.22;;;-2.63;69.46
62011;BME280;47967;51.756;10.174;2022-12-18T14:45:38;100976.97;;;-2.72;69.89
62011;BME280;47967;51.756;10.174;2022-12-18T14:49:44;100977.19;;;-2.77;70.20
62011;BME280;47967;51.756;10.174;2022-12-18T14:53:48;100973.88;;;-2.80;70.49
62011;BME280;47967;51.756;10.174;2022-12-18T14:57:57;100973.09;;;-2.66;69.97
62011;BME280;47967;51.756;10.174;2022-12-18T15:02:03;100965.19;;;-2.66;69.13
62011;BME280;47967;51.756;10.174;2022-12-18T15:06:16;100951.81;;;-2.63;69.80
62011;BME280;47967;51.756;10.174;2022-12-18T15:10:21;100957.09;;;-2.63;70.06
62011;BME280;47967;51.756;10.174;2022-12-18T15:14:33;100949.16;;;-2.47;69.19
62011;BME280;47967;51.756;10.174;2022-12-18T15:18:41;100956.41;;;-2.51;69.74
62011;BME280;47967;51.756;10.174;2022-12-18T15:22:47;100944.91;;;-2.50;68.78
62011;BME280;47967;51.756;10.174;2022-12-18T15:26:51;100944.91;;;-2.50;69.12
62011;BME280;47967;51.756;10.174;2022-12-18T15:31:00;100955.72;;;-2.54;69.15
62011;BME280;47967;51.756;10.174;2022-12-18T15:35:13;100962.97;;;-2.42;68.83
62011;BME280;47967;51.756;10.174;2022-12-18T15:39:16;100963.84;;;-2.42;68.24
62011;BME280;47967;51.756;10.174;2022-12-18T15:43:19;100954.78;;;-2.37;68.68
62011;BME280;47967;51.756;10.174;2022-12-18T15:47:39;100953.94;;;-2.38;68.48
62011;BME280;47967;51.756;10.174;2022-12-18T15:51:43;100952.63;;;-2.31;67.33
62011;BME280;47967;51.756;10.174;2022-12-18T15:55:48;100943.19;;;-2.35;67.45
62011;BME280;47967;51.756;10.174;2022-12-18T16:00:12;100938.16;;;-2.39;67.44
62011;BME280;47967;51.756;10.174;2022-12-18T16:04:18;100947.69;;;-2.37;67.77
62011;BME280;47967;51.756;10.174;2022-12-18T16:08:22;100935.34;;;-2.36;67.16
62011;BME280;47967;51.756;10.174;2022-12-18T16:12:24;100929.13;;;-2.35;67.14
62011;BME280;47967;51.756;10.174;2022-12-18T16:16:27;100919.66;;;-2.39;67.48
62011;BME280;47967;51.756;10.174;2022-12-18T16:20:32;100927.41;;;-2.36;67.57
62011;BME280;47967;51.756;10.174;2022-12-18T16:24:35;100925.88;;;-2.41;67.21
62011;BME280;47967;51.756;10.174;2022-12-18T16:28:38;100918.91;;;-2.42;67.65
62011;BME280;47967;51.756;10.174;2022-12-18T16:32:49;100915.50;;;-2.44;67.92
62011;BME280;47967;51.756;10.174;2022-12-18T16:36:53;100927.66;;;-2.41;68.26
62011;BME280;47967;51.756;10.174;2022-12-18T16:41:15;100916.16;;;-2.40;68.05
62011;BME280;47967;51.756;10.174;2022-12-18T16:45:35;100914.56;;;-2.43;68.41
62011;BME280;47967;51.756;10.174;2022-12-18T16:49:38;100917.19;;;-2.43;68.31
62011;BME280;47967;51.756;10.174;2022-12-18T16:53:42;100905.06;;;-2.47;68.18
62011;BME280;47967;51.756;10.174;2022-12-18T16:57:45;100902.19;;;-2.42;67.91
62011;BME280;47967;51.756;10.174;2022-12-18T17:01:47;100897.84;;;-2.43;67.94
62011;BME280;47967;51.756;10.174;2022-12-18T17:05:51;100899.78;;;-2.47;68.66
62011;BME280;47967;51.756;10.174;2022-12-18T17:09:55;100898.97;;;-2.47;68.79
62011;BME280;47967;51.756;10.174;2022-12-18T17:13:58;100887.44;;;-2.46;68.76
62011;BME280;47967;51.756;10.174;2022-12-18T17:18:02;100884.09;;;-2.34;68.17
62011;BME280;47967;51.756;10.174;2022-12-18T17:22:05;100881.56;;;-2.35;67.82
62011;BME280;47967;51.756;10.174;2022-12-18T17:26:10;100878.91;;;-2.35;67.96
62011;BME280;47967;51.756;10.174;2022-12-18T17:30:13;100879.16;;;-2.40;68.40
62011;BME280;47967;51.756;10.174;2022-12-18T17:34:16;100875.84;;;-2.44;68.51
62011;BME280;47967;51.756;10.174;2022-12-18T17:38:19;100885.50;;;-2.43;68.80
62011;BME280;47967;51.756;10.174;2022-12-18T17:42:23;100881.97;;;-2.43;68.31
62011;BME280;47967;51.756;10.174;2022-12-18T17:46:27;100873.66;;;-2.51;69.07
62011;BME280;47967;51.756;10.174;2022-12-18T17:50:31;100863.50;;;-2.59;68.70
62011;BME280;47967;51.756;10.174;2022-12-18T17:54:34;100864.78;;;-2.50;68.73
62011;BME280;47967;51.756;10.174;2022-12-18T17:58:41;100862.31;;;-2.53;68.47
62011;BME280;47967;51.756;10.174;2022-12-18T18:02:44;100867.78;;;-2.57;69.02
62011;BME280;47967;51.756;10.174;2022-12-18T18:06:47;100861.38;;;-2.52;68.92
62011;BME280;47967;51.756;10.174;2022-12-18T18:10:50;100871.84;;;-2.51;69.43
62011;BME280;47967;51.756;10.174;2022-12-18T18:14:54;100876.63;;;-2.42;68.95
62011;BME280;47967;51.756;10.174;2022-12-18T18:18:57;100877.56;;;-2.43;68.27
62011;BME280;47967;51.756;10.174;2022-12-18T18:23:00;100874.81;;;-2.41;68.91
62011;BME280;47967;51.756;10.174;2022-12-18T18:27:03;100867.00;;;-2.43;68.45
62011;BME280;47967;51.756;10.174;2022-12-18T18:31:08;100845.06;;;-2.45;68.82
62011;BME280;47967;51.756;10.174;2022-12-18T18:35:11;100846.09;;;-2.47;68.74
62011;BME280;47967;51.756;10.174;2022-12-18T18:39:35;100856.38;;;-2.57;69.42
62011;BME280;47967;51.756;10.174;2022-12-18T18:43:37;100879.47;;;-2.61;69.05
62011;BME280;47967;51.756;10.174;2022-12-18T18:47:42;100871.84;;;-2.51;69.69
62011;BME280;47967;51.756;10.174;2022-12-18T18:51:44;100883.72;;;-2.58;68.75
62011;BME280;47967;51.756;10.174;2022-12-18T18:55:47;100891.72;;;-2.60;69.40
62011;BME280;47967;51.756;10.174;2022-12-18T19:00:11;100884.84;;;-2.62;69.54
62011;BME280;47967;51.756;10.174;2022-12-18T19:04:16;100895.22;;;-2.59;69.24
62011;BME280;47967;51.756;10.174;2022-12-18T19:08:18;100885.75;;;-2.47;68.81
62011;BME280;47967;51.756;10.174;2022-12-18T19:12:21;100878.22;;;-2.39;68.86
62011;BME280;47967;51.756;10.174;2022-12-18T19:16:42;100860.03;;;-2.29;68.70
62011;BME280;47967;51.756;10.174;2022-12-18T19:20:55;100854.44;;;-2.08;67.53
62011;BME280;47967;51.756;10.174;2022-12-18T19:24:58;100849.19;;;-1.94;66.34
62011;BME280;47967;51.756;10.174;2022-12-18T19:29:01;100844.06;;;-1.83;65.81
62011;BME280;47967;51.756;10.174;2022-12-18T19:33:04;100847.09;;;-1.60;64.31
62011;BME280;47967;51.756;10.174;2022-12-18T19:37:29;100835.13;;;-1.51;64.00
62011;BME280;47967;51.756;10.174;2022-12-18T19:41:31;100834.13;;;-1.50;63.75
62011;BME280;47967;51.756;10.174;2022-12-18T19:45:35;100842.66;;;-1.45;63.28
62011;BME280;47967;51.756;10.174;2022-12-18T19:49:38;100838.41;;;-1.48;63.47
62011;BME280;47967;51.756;10.174;2022-12-18T19:53:42;100830.81;;;-1.39;62.80
62011;BME280;47967;51.756;10.174;2022-12-18T19:57:45;100834.13;;;-1.21;61.67
62011;BME280;47967;51.756;10.174;2022-12-18T20:01:48;100837.53;;;-1.19;61.88
62011;BME280;47967;51.756;10.174;2022-12-18T20:05:53;100837.25;;;-1.15;62.02
62011;BME280;47967;51.756;10.174;2022-12-18T20:09:58;100838.72;;;-1.10;62.11
62011;BME280;47967;51.756;10.174;2022-12-18T20:14:10;100830.97;;;-1.14;63.30
62011;BME280;47967;51.756;10.174;2022-12-18T20:18:12;100827.09;;;-1.08;62.39
62011;BME280;47967;51.756;10.174;2022-12-18T20:22:18;100825.81;;;-0.88;61.42
62011;BME280;47967;51.756;10.174;2022-12-18T20:26:22;100820.00;;;-0.80;60.67
62011;BME280;47967;51.756;10.174;2022-12-18T20:30:25;100820.38;;;-0.72;60.54
62011;BME280;47967;51.756;10.174;2022-12-18T20:34:28;100813.06;;;-0.55;60.01
62011;BME280;47967;51.756;10.174;2022-12-18T20:38:31;100803.13;;;-0.52;59.00
62011;BME280;47967;51.756;10.174;2022-12-18T20:42:36;100797.00;;;-0.39;58.80
62011;BME280;47967;51.756;10.174;2022-12-18T20:46:39;100799.88;;;-0.29;58.06
62011;BME280;47967;51.756;10.174;2022-12-18T20:50:41;100786.53;;;-0.28;58.69
62011;BME280;47967;51.756;10.174;2022-12-18T20:54:44;100787.16;;;-0.11;57.99
62011;BME280;47967;51.756;10.174;2022-12-18T20:58:49;100789.81;;;-0.11;58.21
62011;BME280;47967;51.756;10.174;2022-12-18T21:02:55;100758.19;;;-0.02;57.08
62011;BME280;47967;51.756;10.174;2022-12-18T21:06:58;100771.56;;;0.10;57.09
62011;BME280;47967;51.756;10.174;2022-12-18T21:11:14;100767.63;;;0.15;57.96
62011;BME280;47967;51.756;10.174;2022-12-18T21:15:33;100764.34;;;0.12;57.06
62011;BME280;47967;51.756;10.174;2022-12-18T21:19:36;100763.81;;;0.20;56.76
62011;BME280;47967;51.756;10.174;2022-12-18T21:23:39;100753.47;;;0.28;56.15
62011;BME280;47967;51.756;10.174;2022-12-18T21:27:42;100746.59;;;0.25;56.41
62011;BME280;47967;51.756;10.174;2022-12-18T21:31:46;100754.75;;;0.35;56.34
62011;BME280;47967;51.756;10.174;2022-12-18T21:35:49;100754.41;;;0.40;56.52
62011;BME280;47967;51.756;10.174;2022-12-18T21:39:52;100757.41;;;0.35;55.76
62011;BME280;47967;51.756;10.174;2022-12-18T21:43:54;100765.13;;;0.51;55.95
62011;BME280;47967;51.756;10.174;2022-12-18T21:48:10;100758.13;;;0.50;55.28
62011;BME280;47967;51.756;10.174;2022-12-18T21:52:13;100766.00;;;0.39;55.87
62011;BME280;47967;51.756;10.174;2022-12-18T21:56:15;100757.72;;;0.30;55.79
